sensor_id;sensor_type;location;lat;lon;timestamp;pressure;altitude;pressure_sealevel;temperature;humidity
52185;BME280;38160;52.876;18.778;2023-01-31T00:02:13;99629.04;;;2.00;100.00
52185;BME280;38160;52.876;18.778;2023-01-31T00:04:50;99627.09;;;1.96;100.00
52185;BME280;38160;52.876;18.778;2023-01-31T00:07:27;99628.89;;;1.91;100.00
52185;BME280;38160;52.876;18.778;2023-01-31T00:10:04;99630.13;;;1.87;100.00
52185;BME280;38160;52.876;18.778;2023-01-31T00:12:42;99636.73;;;1.84;100.00
52185;BME280;38160;52.876;18.778;2023-01-31T00:15:19;99643.59;;;1.83;100.00
52185;BME280;38160;52.876;18.778;2023-01-31T00:17:56;99650.20;;;1.81;100.00
52185;BME280;38160;52.876;18.778;2023-01-31T00:20:32;99654.52;;;1.80;100.00
52185;BME280;38160;52.876;18.778;2023-01-31T00:23:08;99655.63;;;1.77;100.00
52185;BME280;38160;52.876;18.778;2023-01-31T00:25:44;99656.86;;;1.78;100.00
52185;BME280;38160;52.876;18.778;2023-01-31T00:28:20;99662.27;;;1.74;100.00
52185;BME280;38160;52.876;18.778;2023-01-31T00:30:58;99665.95;;;1.73;100.00
52185;BME280;38160;52.876;18.778;2023-01-31T00:33:35;99666.34;;;1.73;100.00
52185;BME280;38160;52.876;18.778;2023-01-31T00:36:14;99669.57;;;1.70;100.00
52185;BME280;38160;52.876;18.778;2023-01-31T00:38:51;99674.26;;;1.67;100.00
52185;BME280;38160;52.876;18.778;2023-01-31T00:41:29;99676.08;;;1.69;100.00
52185;BME280;38160;52.876;18.778;2023-01-31T00:44:06;99680.11;;;1.73;100.00
52185;BME280;38160;52.876;18.778;2023-01-31T00:46:42;99679.33;;;1.78;100.00
52185;BME280;38160;52.876;18.778;2023-01-31T00:49:18;99683.13;;;1.83;100.00
52185;BME280;38160;52.876;18.778;2023-01-31T00:51:54;99685.84;;;1.87;100.00
52185;BME280;38160;52.876;18.778;2023-01-31T00:54:30;99695.20;;;1.87;100.00
52185;BME280;38160;52.876;18.778;2023-01-31T00:57:06;99696.55;;;1.88;100.00
52185;BME280;38160;52.876;18.778;2023-01-31T00:59:43;99697.22;;;1.87;100.00
52185;BME280;38160;52.876;18.778;2023-01-31T01:02:19;99697.69;;;1.85;100.00
52185;BME280;38160;52.876;18.778;2023-01-31T01:04:54;99701.70;;;1.86;100.00
52185;BME280;38160;52.876;18.778;2023-01-31T01:07:30;99705.63;;;1.88;100.00
52185;BME280;38160;52.876;18.778;2023-01-31T01:10:10;99708.30;;;1.90;100.00
52185;BME280;38160;52.876;18.778;2023-01-31T01:12:46;99715.22;;;1.92;100.00
52185;BME280;38160;52.876;18.778;2023-01-31T01:15:22;99716.20;;;1.93;100.00
52185;BME280;38160;52.876;18.778;2023-01-31T01:17:58;99712.16;;;1.92;100.00
52185;BME280;38160;52.876;18.778;2023-01-31T01:20:34;99717.11;;;1.89;100.00
52185;BME280;38160;52.876;18.778;2023-01-31T01:23:10;99717.55;;;1.85;100.00
52185;BME280;38160;52.876;18.778;2023-01-31T01:25:46;99723.18;;;1.82;100.00
52185;BME280;38160;52.876;18.778;2023-01-31T01:28:22;99730.34;;;1.77;100.00
52185;BME280;38160;52.876;18.778;2023-01-31T01:30:58;99734.19;;;1.73;100.00
52185;BME280;38160;52.876;18.778;2023-01-31T01:33:35;99732.27;;;1.73;100.00
52185;BME280;38160;52.876;18.778;2023-01-31T01:36:13;99739.38;;;1.73;100.00
52185;BME280;38160;52.876;18.778;2023-01-31T01:38:50;99745.30;;;1.74;100.00
52185;BME280;38160;52.876;18.778;2023-01-31T01:41:27;99750.20;;;1.74;100.00
52185;BME280;38160;52.876;18.778;2023-01-31T01:44:40;99756.46;;;1.76;100.00
52185;BME280;38160;52.876;18.778;2023-01-31T01:47:00;99758.45;;;1.80;100.00
52185;BME280;38160;52.876;18.778;2023-01-31T01:49:37;99761.61;;;1.82;100.00
52185;BME280;38160;52.876;18.778;2023-01-31T01:52:15;99764.34;;;1.85;100.00
52185;BME280;38160;52.876;18.778;2023-01-31T01:54:54;99768.61;;;1.88;100.00
52185;BME280;38160;52.876;18.778;2023-01-31T01:57:33;99764.70;;;1.90;100.00
52185;BME280;38160;52.876;18.778;2023-01-31T02:00:15;99771.88;;;1.93;100.00
52185;BME280;38160;52.876;18.778;2023-01-31T02:02:57;99778.52;;;1.95;100.00
52185;BME280;38160;52.876;18.778;2023-01-31T02:05:35;99781.58;;;1.96;100.00
52185;BME280;38160;52.876;18.778;2023-01-31T02:08:16;99788.17;;;1.96;100.00
52185;BME280;38160;52.876;18.778;2023-01-31T02:10:57;99788.45;;;1.92;100.00
52185;BME280;38160;52.876;18.778;2023-01-31T02:13:35;99790.02;;;1.89;100.00
52185;BME280;38160;52.876;18.778;2023-01-31T02:16:13;99796.27;;;1.83;100.00
52185;BME280;38160;52.876;18.778;2023-01-31T02:18:50;99798.36;;;1.78;100.00
52185;BME280;38160;52.876;18.778;2023-01-31T02:33:58;99849.01;;;1.57;100.00
52185;BME280;38160;52.876;18.778;2023-01-31T02:36:46;99858.52;;;1.60;100.00
52185;BME280;38160;52.876;18.778;2023-01-31T02:39:30;99866.45;;;1.63;100.00
52185;BME280;38160;52.876;18.778;2023-01-31T02:42:16;99870.29;;;1.66;100.00
52185;BME280;38160;52.876;18.778;2023-01-31T02:45:02;99875.08;;;1.70;100.00
52185;BME280;38160;52.876;18.778;2023-01-31T02:47:52;99877.39;;;1.70;100.00
52185;BME280;38160;52.876;18.778;2023-01-31T02:50:45;99876.09;;;1.71;100.00
52185;BME280;38160;52.876;18.778;2023-01-31T02:53:23;99877.73;;;1.68;100.00
52185;BME280;38160;52.876;18.778;2023-01-31T02:56:05;99880.25;;;1.61;100.00
52185;BME280;38160;52.876;18.778;2023-01-31T02:59:00;99886.77;;;1.55;100.00
52185;BME280;38160;52.876;18.778;2023-01-31T03:01:39;99897.40;;;1.53;100.00
52185;BME280;38160;52.876;18.778;2023-01-31T03:04:16;99899.07;;;1.52;100.00
52185;BME280;38160;52.876;18.778;2023-01-31T03:07:00;99906.33;;;1.52;100.00
52185;BME280;38160;52.876;18.778;2023-01-31T03:09:47;99908.15;;;1.54;100.00
52185;BME280;38160;52.876;18.778;2023-01-31T03:12:48;99911.31;;;1.56;100.00
52185;BME280;38160;52.876;18.778;2023-01-31T03:15:48;99913.46;;;1.58;100.00
52185;BME280;38160;52.876;18.778;2023-01-31T03:18:50;99917.86;;;1.58;100.00
52185;BME280;38160;52.876;18.778;2023-01-31T03:21:31;99928.04;;;1.58;100.00
52185;BME280;38160;52.876;18.778;2023-01-31T03:24:09;99929.30;;;1.58;100.00
52185;BME280;38160;52.876;18.778;2023-01-31T03:26:48;99931.55;;;1.60;100.00
52185;BME280;38160;52.876;18.778;2023-01-31T03:29:26;99934.58;;;1.62;100.00
52185;BME280;38160;52.876;18.778;2023-01-31T03:32:05;99938.83;;;1.64;100.00
52185;BME280;38160;52.876;18.778;2023-01-31T03:34:46;99940.88;;;1.65;100.00
52185;BME280;38160;52.876;18.778;2023-01-31T03:37:30;99949.50;;;1.67;100.00
52185;BME280;38160;52.876;18.778;2023-01-31T03:40:21;99960.46;;;1.67;100.00
52185;BME280;38160;52.876;18.778;2023-01-31T03:43:03;99961.64;;;1.65;100.00
52185;BME280;38160;52.876;18.778;2023-01-31T03:45:47;99964.94;;;1.64;100.00
52185;BME280;38160;52.876;18.778;2023-01-31T03:48:29;99966.91;;;1.63;100.00
52185;BME280;38160;52.876;18.778;2023-01-31T03:51:08;99969.48;;;1.64;100.00
52185;BME280;38160;52.876;18.778;2023-01-31T03:53:50;99980.42;;;1.65;100.00
52185;BME280;38160;52.876;18.778;2023-01-31T03:56:31;99983.48;;;1.64;100.00
52185;BME280;38160;52.876;18.778;2023-01-31T03:59:10;99987.98;;;1.64;100.00
52185;BME280;38160;52.876;18.778;2023-01-31T04:01:50;99987.52;;;1.63;100.00
52185;BME280;38160;52.876;18.778;2023-01-31T04:04:30;99995.08;;;1.64;100.00
52185;BME280;38160;52.876;18.778;2023-01-31T04:07:08;99999.28;;;1.65;100.00
52185;BME280;38160;52.876;18.778;2023-01-31T04:09:44;99995.70;;;1.65;100.00
52185;BME280;38160;52.876;18.778;2023-01-31T04:12:20;99993.61;;;1.64;100.00
52185;BME280;38160;52.876;18.778;2023-01-31T04:14:56;99995.36;;;1.67;100.00
52185;BME280;38160;52.876;18.778;2023-01-31T04:17:33;99995.98;;;1.68;100.00
52185;BME280;38160;52.876;18.778;2023-01-31T04:20:10;100001.19;;;1.70;100.00
52185;BME280;38160;52.876;18.778;2023-01-31T04:22:47;100003.70;;;1.72;100.00
52185;BME280;38160;52.876;18.778;2023-01-31T04:25:23;100005.73;;;1.73;100.00
52185;BME280;38160;52.876;18.778;2023-01-31T04:27:59;100008.35;;;1.73;100.00
52185;BME280;38160;52.876;18.778;2023-01-31T04:30:35;100014.11;;;1.74;100.00
52185;BME280;38160;52.876;18.778;2023-01-31T04:33:11;100013.20;;;1.75;100.00
52185;BME280;38160;52.876;18.778;2023-01-31T04:35:47;100018.68;;;1.75;100.00
52185;BME280;38160;52.876;18.778;2023-01-31T04:38:25;100022.98;;;1.72;100.00
52185;BME280;38160;52.876;18.778;2023-01-31T04:41:01;100025.91;;;1.71;100.00
52185;BME280;38160;52.876;18.778;2023-01-31T04:43:37;100032.98;;;1.69;100.00
52185;BME280;38160;52.876;18.778;2023-01-31T04:46:13;100037.87;;;1.68;100.00
52185;BME280;38160;52.876;18.778;2023-01-31T04:48:49;100043.38;;;1.68;100.00
52185;BME280;38160;52.876;18.778;2023-01-31T04:51:25;100050.38;;;1.64;100.00
52185;BME280;38160;52.876;18.778;2023-01-31T04:54:02;100051.34;;;1.66;100.00
52185;BME280;38160;52.876;18.778;2023-01-31T04:56:38;100056.32;;;1.65;100.00
52185;BME280;38160;52.876;18.778;2023-01-31T04:59:14;100061.95;;;1.66;100.00
52185;BME280;38160;52.876;18.778;2023-01-31T05:01:50;100060.41;;;1.65;100.00
52185;BME280;38160;52.876;18.778;2023-01-31T05:04:26;100067.06;;;1.64;100.00
52185;BME280;38160;52.876;18.778;2023-01-31T05:07:02;100070.45;;;1.64;100.00
52185;BME280;38160;52.876;18.778;2023-01-31T05:09:38;100071.75;;;1.65;100.00
52185;BME280;38160;52.876;18.778;2023-01-31T05:12:16;100077.91;;;1.66;99.97
52185;BME280;38160;52.876;18.778;2023-01-31T05:14:53;100082.94;;;1.65;100.00
52185;BME280;38160;52.876;18.778;2023-01-31T05:17:29;100088.63;;;1.67;99.89
52185;BME280;38160;52.876;18.778;2023-01-31T05:20:07;100088.96;;;1.68;99.94
52185;BME280;38160;52.876;18.778;2023-01-31T05:22:47;100093.08;;;1.70;100.00
52185;BME280;38160;52.876;18.778;2023-01-31T05:25:23;100101.14;;;1.71;99.99
52185;BME280;38160;52.876;18.778;2023-01-31T05:27:59;100110.70;;;1.71;99.89
52185;BME280;38160;52.876;18.778;2023-01-31T05:30:36;100123.58;;;1.69;99.44
52185;BME280;38160;52.876;18.778;2023-01-31T05:33:12;100126.04;;;1.70;99.79
52185;BME280;38160;52.876;18.778;2023-01-31T05:35:48;100129.66;;;1.71;99.79
52185;BME280;38160;52.876;18.778;2023-01-31T05:38:25;100133.07;;;1.70;99.75
52185;BME280;38160;52.876;18.778;2023-01-31T05:41:01;100142.58;;;1.71;99.76
52185;BME280;38160;52.876;18.778;2023-01-31T05:43:37;100146.11;;;1.71;99.45
52185;BME280;38160;52.876;18.778;2023-01-31T05:46:13;100154.88;;;1.73;99.36
52185;BME280;38160;52.876;18.778;2023-01-31T05:48:49;100161.42;;;1.73;99.37
52185;BME280;38160;52.876;18.778;2023-01-31T05:51:25;100158.36;;;1.73;99.01
52185;BME280;38160;52.876;18.778;2023-01-31T05:54:02;100158.80;;;1.72;99.03
52185;BME280;38160;52.876;18.778;2023-01-31T05:56:38;100164.08;;;1.71;98.77
52185;BME280;38160;52.876;18.778;2023-01-31T05:59:14;100167.45;;;1.66;98.57
52185;BME280;38160;52.876;18.778;2023-01-31T06:01:50;100171.81;;;1.58;98.58
52185;BME280;38160;52.876;18.778;2023-01-31T06:04:27;100176.77;;;1.49;98.44
52185;BME280;38160;52.876;18.778;2023-01-31T06:07:03;100178.59;;;1.38;98.87
52185;BME280;38160;52.876;18.778;2023-01-31T06:09:39;100180.23;;;1.31;98.75
52185;BME280;38160;52.876;18.778;2023-01-31T06:12:16;100184.34;;;1.23;98.63
52185;BME280;38160;52.876;18.778;2023-01-31T06:14:52;100192.13;;;1.17;98.87
52185;BME280;38160;52.876;18.778;2023-01-31T06:17:28;100192.34;;;1.11;98.69
52185;BME280;38160;52.876;18.778;2023-01-31T06:20:05;100191.03;;;1.08;99.16
52185;BME280;38160;52.876;18.778;2023-01-31T06:22:42;100190.64;;;1.03;98.94
52185;BME280;38160;52.876;18.778;2023-01-31T06:25:18;100190.98;;;0.99;98.86
52185;BME280;38160;52.876;18.778;2023-01-31T06:27:55;100196.73;;;0.95;99.12
52185;BME280;38160;52.876;18.778;2023-01-31T06:30:32;100202.02;;;0.93;99.23
52185;BME280;38160;52.876;18.778;2023-01-31T06:33:08;100206.10;;;0.91;99.10
52185;BME280;38160;52.876;18.778;2023-01-31T06:35:44;100210.67;;;0.89;99.24
52185;BME280;38160;52.876;18.778;2023-01-31T06:38:20;100210.15;;;0.86;99.17
52185;BME280;38160;52.876;18.778;2023-01-31T06:40:57;100217.18;;;0.85;99.13
52185;BME280;38160;52.876;18.778;2023-01-31T06:43:33;100218.02;;;0.83;98.97
52185;BME280;38160;52.876;18.778;2023-01-31T06:46:09;100213.86;;;0.81;99.23
52185;BME280;38160;52.876;18.778;2023-01-31T06:48:45;100220.48;;;0.80;99.22
52185;BME280;38160;52.876;18.778;2023-01-31T06:51:21;100219.85;;;0.79;98.96
52185;BME280;38160;52.876;18.778;2023-01-31T06:53:58;100225.58;;;0.78;99.12
52185;BME280;38160;52.876;18.778;2023-01-31T06:56:33;100229.88;;;0.78;99.01
52185;BME280;38160;52.876;18.778;2023-01-31T06:59:10;100233.61;;;0.78;99.18
52185;BME280;38160;52.876;18.778;2023-01-31T07:01:46;100237.64;;;0.80;99.20
52185;BME280;38160;52.876;18.778;2023-01-31T07:04:23;100239.20;;;0.81;99.10
52185;BME280;38160;52.876;18.778;2023-01-31T07:06:59;100239.25;;;0.81;98.95
52185;BME280;38160;52.876;18.778;2023-01-31T07:09:35;100243.98;;;0.81;98.88
52185;BME280;38160;52.876;18.778;2023-01-31T07:12:11;100244.85;;;0.81;98.95
52185;BME280;38160;52.876;18.778;2023-01-31T07:14:47;100245.08;;;0.83;99.15
52185;BME280;38160;52.876;18.778;2023-01-31T07:17:23;100248.25;;;0.83;98.92
52185;BME280;38160;52.876;18.778;2023-01-31T07:19:59;100257.65;;;0.86;98.80
52185;BME280;38160;52.876;18.778;2023-01-31T07:22:39;100260.11;;;0.86;99.02
52185;BME280;38160;52.876;18.778;2023-01-31T07:25:18;100264.91;;;0.88;99.13
52185;BME280;38160;52.876;18.778;2023-01-31T07:27:54;100264.73;;;0.91;98.78
52185;BME280;38160;52.876;18.778;2023-01-31T07:30:31;100265.72;;;0.94;98.79
52185;BME280;38160;52.876;18.778;2023-01-31T07:33:07;100269.80;;;0.96;99.03
52185;BME280;38160;52.876;18.778;2023-01-31T07:35:43;100263.95;;;0.98;99.02
52185;BME280;38160;52.876;18.778;2023-01-31T07:38:19;100267.33;;;1.01;99.02
52185;BME280;38160;52.876;18.778;2023-01-31T07:40:58;100269.45;;;1.03;99.01
52185;BME280;38160;52.876;18.778;2023-01-31T07:43:35;100276.84;;;1.07;99.03
52185;BME280;38160;52.876;18.778;2023-01-31T07:46:12;100280.39;;;1.09;98.72
52185;BME280;38160;52.876;18.778;2023-01-31T07:48:48;100282.30;;;1.12;98.72
52185;BME280;38160;52.876;18.778;2023-01-31T07:51:24;100283.80;;;1.13;98.68
52185;BME280;38160;52.876;18.778;2023-01-31T07:54:00;100292.31;;;1.16;98.49
52185;BME280;38160;52.876;18.778;2023-01-31T07:56:37;100294.40;;;1.19;98.69
52185;BME280;38160;52.876;18.778;2023-01-31T07:59:14;100298.25;;;1.22;98.50
52185;BME280;38160;52.876;18.778;2023-01-31T08:01:51;100304.56;;;1.25;98.42
52185;BME280;38160;52.876;18.778;2023-01-31T08:04:45;100307.46;;;1.29;98.31
52185;BME280;38160;52.876;18.778;2023-01-31T08:07:21;100312.95;;;1.34;98.23
52185;BME280;38160;52.876;18.778;2023-01-31T08:09:57;100319.42;;;1.40;98.14
52185;BME280;38160;52.876;18.778;2023-01-31T08:12:33;100320.69;;;1.47;98.00
52185;BME280;38160;52.876;18.778;2023-01-31T08:15:10;100328.71;;;1.53;97.71
52185;BME280;38160;52.876;18.778;2023-01-31T08:17:47;100332.67;;;1.57;97.68
52185;BME280;38160;52.876;18.778;2023-01-31T08:20:24;100329.02;;;1.59;97.83
52185;BME280;38160;52.876;18.778;2023-01-31T08:23:00;100328.12;;;1.61;97.76
52185;BME280;38160;52.876;18.778;2023-01-31T08:25:36;100327.73;;;1.64;97.76
52185;BME280;38160;52.876;18.778;2023-01-31T08:28:13;100334.31;;;1.69;97.60
52185;BME280;38160;52.876;18.778;2023-01-31T08:30:50;100332.21;;;1.71;97.51
52185;BME280;38160;52.876;18.778;2023-01-31T08:33:26;100333.73;;;1.74;97.58
52185;BME280;38160;52.876;18.778;2023-01-31T08:36:11;100340.19;;;1.80;97.42
52185;BME280;38160;52.876;18.778;2023-01-31T08:38:48;100343.02;;;1.85;96.72
52185;BME280;38160;52.876;18.778;2023-01-31T08:41:25;100341.89;;;1.91;96.79
52185;BME280;38160;52.876;18.778;2023-01-31T08:44:03;100347.64;;;1.99;97.05
52185;BME280;38160;52.876;18.778;2023-01-31T08:46:39;100351.89;;;2.03;96.90
52185;BME280;38160;52.876;18.778;2023-01-31T08:49:15;100349.33;;;2.07;96.82
52185;BME280;38160;52.876;18.778;2023-01-31T08:51:52;100352.66;;;2.05;96.57
52185;BME280;38160;52.876;18.778;2023-01-31T08:54:28;100357.63;;;2.05;96.58
52185;BME280;38160;52.876;18.778;2023-01-31T08:57:04;100357.37;;;2.06;96.42
52185;BME280;38160;52.876;18.778;2023-01-31T08:59:40;100361.61;;;2.06;96.12
52185;BME280;38160;52.876;18.778;2023-01-31T09:02:16;100362.33;;;2.06;96.31
52185;BME280;38160;52.876;18.778;2023-01-31T09:04:52;100365.17;;;2.06;95.71
52185;BME280;38160;52.876;18.778;2023-01-31T09:07:29;100370.41;;;2.08;95.60
52185;BME280;38160;52.876;18.778;2023-01-31T09:10:05;100370.51;;;2.09;96.04
52185;BME280;38160;52.876;18.778;2023-01-31T09:12:42;100381.25;;;2.10;95.60
52185;BME280;38160;52.876;18.778;2023-01-31T09:15:18;100383.24;;;2.12;95.39
52185;BME280;38160;52.876;18.778;2023-01-31T09:17:54;100391.87;;;2.15;95.48
52185;BME280;38160;52.876;18.778;2023-01-31T09:20:30;100398.54;;;2.18;94.99
52185;BME280;38160;52.876;18.778;2023-01-31T09:23:06;100396.27;;;2.20;94.92
52185;BME280;38160;52.876;18.778;2023-01-31T09:25:42;100392.79;;;2.24;95.36
52185;BME280;38160;52.876;18.778;2023-01-31T09:28:18;100391.94;;;2.25;94.66
52185;BME280;38160;52.876;18.778;2023-01-31T09:30:54;100393.95;;;2.27;94.70
52185;BME280;38160;52.876;18.778;2023-01-31T09:33:31;100392.40;;;2.32;94.72
52185;BME280;38160;52.876;18.778;2023-01-31T09:36:10;100399.92;;;2.37;94.80
52185;BME280;38160;52.876;18.778;2023-01-31T09:38:46;100400.14;;;2.41;94.37
52185;BME280;38160;52.876;18.778;2023-01-31T09:41:28;100398.57;;;2.46;94.43
52185;BME280;38160;52.876;18.778;2023-01-31T09:44:11;100401.69;;;2.46;94.14
52185;BME280;38160;52.876;18.778;2023-01-31T09:46:53;100400.33;;;2.51;93.56
52185;BME280;38160;52.876;18.778;2023-01-31T09:49:39;100397.77;;;2.56;93.87
52185;BME280;38160;52.876;18.778;2023-01-31T09:52:16;100399.17;;;2.61;93.62
52185;BME280;38160;52.876;18.778;2023-01-31T09:54:54;100399.08;;;2.64;93.55
52185;BME280;38160;52.876;18.778;2023-01-31T09:57:41;100402.93;;;2.67;93.32
52185;BME280;38160;52.876;18.778;2023-01-31T10:00:26;100405.56;;;2.65;92.86
52185;BME280;38160;52.876;18.778;2023-01-31T10:03:22;100408.45;;;2.69;93.22
52185;BME280;38160;52.876;18.778;2023-01-31T10:06:09;100407.29;;;2.66;92.85
52185;BME280;38160;52.876;18.778;2023-01-31T10:08:52;100410.81;;;2.64;93.41
52185;BME280;38160;52.876;18.778;2023-01-31T10:11:37;100407.74;;;2.69;92.68
52185;BME280;38160;52.876;18.778;2023-01-31T10:14:23;100409.86;;;2.72;91.37
52185;BME280;38160;52.876;18.778;2023-01-31T10:17:08;100409.05;;;2.78;92.11
52185;BME280;38160;52.876;18.778;2023-01-31T10:19:50;100403.16;;;2.90;91.89
52185;BME280;38160;52.876;18.778;2023-01-31T10:22:33;100402.16;;;3.02;91.87
52185;BME280;38160;52.876;18.778;2023-01-31T10:25:20;100400.46;;;3.10;91.49
52185;BME280;38160;52.876;18.778;2023-01-31T10:28:03;100396.43;;;3.18;90.84
52185;BME280;38160;52.876;18.778;2023-01-31T10:30:45;100392.45;;;3.26;91.92
52185;BME280;38160;52.876;18.778;2023-01-31T10:33:30;100395.49;;;3.32;91.23
52185;BME280;38160;52.876;18.778;2023-01-31T10:36:20;100394.92;;;3.39;91.03
52185;BME280;38160;52.876;18.778;2023-01-31T10:39:03;100400.43;;;3.42;90.51
52185;BME280;38160;52.876;18.778;2023-01-31T10:41:58;100401.17;;;3.43;91.26
52185;BME280;38160;52.876;18.778;2023-01-31T10:44:43;100399.55;;;3.46;90.94
52185;BME280;38160;52.876;18.778;2023-01-31T10:47:29;100400.64;;;3.48;90.14
52185;BME280;38160;52.876;18.778;2023-01-31T10:50:15;100399.52;;;3.48;90.15
52185;BME280;38160;52.876;18.778;2023-01-31T10:53:08;100410.00;;;3.48;90.42
52185;BME280;38160;52.876;18.778;2023-01-31T10:55:57;100406.48;;;3.48;90.30
52185;BME280;38160;52.876;18.778;2023-01-31T10:58:35;100401.31;;;3.44;89.53
52185;BME280;38160;52.876;18.778;2023-01-31T11:01:11;100404.76;;;3.43;89.87
52185;BME280;38160;52.876;18.778;2023-01-31T11:03:51;100395.56;;;3.42;89.77
52185;BME280;38160;52.876;18.778;2023-01-31T11:06:27;100389.55;;;3.44;89.76
52185;BME280;38160;52.876;18.778;2023-01-31T11:09:04;100390.01;;;3.49;89.88
52185;BME280;38160;52.876;18.778;2023-01-31T11:11:54;100383.80;;;3.58;89.73
52185;BME280;38160;52.876;18.778;2023-01-31T11:14:30;100379.33;;;3.63;89.44
52185;BME280;38160;52.876;18.778;2023-01-31T11:17:11;100370.41;;;3.72;89.63
52185;BME280;38160;52.876;18.778;2023-01-31T11:19:51;100376.80;;;3.80;89.81
52185;BME280;38160;52.876;18.778;2023-01-31T11:22:30;100378.98;;;3.82;89.04
52185;BME280;38160;52.876;18.778;2023-01-31T11:25:14;100381.42;;;3.74;88.38
52185;BME280;38160;52.876;18.778;2023-01-31T11:27:53;100384.00;;;3.64;88.65
52185;BME280;38160;52.876;18.778;2023-01-31T11:30:34;100380.93;;;3.58;87.39
52185;BME280;38160;52.876;18.778;2023-01-31T11:33:37;100379.87;;;3.56;88.47
52185;BME280;38160;52.876;18.778;2023-01-31T11:36:16;100374.79;;;3.57;89.13
52185;BME280;38160;52.876;18.778;2023-01-31T11:38:56;100372.16;;;3.57;89.01
52185;BME280;38160;52.876;18.778;2023-01-31T11:41:34;100372.83;;;3.59;89.46
52185;BME280;38160;52.876;18.778;2023-01-31T11:44:16;100369.55;;;3.63;88.77
52185;BME280;38160;52.876;18.778;2023-01-31T11:46:54;100372.71;;;3.65;88.35
52185;BME280;38160;52.876;18.778;2023-01-31T11:49:33;100370.27;;;3.62;88.31
52185;BME280;38160;52.876;18.778;2023-01-31T11:52:15;100370.27;;;3.65;88.27
52185;BME280;38160;52.876;18.778;2023-01-31T11:54:55;100359.98;;;3.75;88.55
52185;BME280;38160;52.876;18.778;2023-01-31T11:57:34;100359.38;;;3.85;87.03
52185;BME280;38160;52.876;18.778;2023-01-31T12:00:21;100352.07;;;3.89;88.06
52185;BME280;38160;52.876;18.778;2023-01-31T12:03:03;100345.95;;;3.94;87.85
52185;BME280;38160;52.876;18.778;2023-01-31T12:05:42;100344.80;;;3.86;88.17
52185;BME280;38160;52.876;18.778;2023-01-31T12:08:33;100342.59;;;3.77;87.85
52185;BME280;38160;52.876;18.778;2023-01-31T12:11:28;100334.67;;;3.63;87.52
52185;BME280;38160;52.876;18.778;2023-01-31T12:14:14;100336.55;;;3.53;87.69
52185;BME280;38160;52.876;18.778;2023-01-31T12:16:54;100328.46;;;3.45;88.13
52185;BME280;38160;52.876;18.778;2023-01-31T12:19:40;100328.06;;;3.41;87.88
52185;BME280;38160;52.876;18.778;2023-01-31T12:22:24;100324.98;;;3.42;87.83
52185;BME280;38160;52.876;18.778;2023-01-31T12:25:11;100326.52;;;3.41;87.39
52185;BME280;38160;52.876;18.778;2023-01-31T12:28:00;100328.30;;;3.38;87.77
52185;BME280;38160;52.876;18.778;2023-01-31T12:30:57;100330.21;;;3.35;87.69
52185;BME280;38160;52.876;18.778;2023-01-31T12:33:45;100328.21;;;3.37;87.70
52185;BME280;38160;52.876;18.778;2023-01-31T12:36:45;100329.09;;;3.40;87.19
52185;BME280;38160;52.876;18.778;2023-01-31T12:39:35;100322.33;;;3.40;87.64
52185;BME280;38160;52.876;18.778;2023-01-31T12:42:25;100318.10;;;3.39;87.44
52185;BME280;38160;52.876;18.778;2023-01-31T12:45:12;100315.00;;;3.42;87.24
52185;BME280;38160;52.876;18.778;2023-01-31T12:48:23;100312.55;;;3.46;87.50
52185;BME280;38160;52.876;18.778;2023-01-31T12:51:06;100309.45;;;3.49;87.53
52185;BME280;38160;52.876;18.778;2023-01-31T12:53:58;100304.16;;;3.48;87.48
52185;BME280;38160;52.876;18.778;2023-01-31T12:57:03;100305.11;;;3.50;87.28
52185;BME280;38160;52.876;18.778;2023-01-31T12:59:49;100301.42;;;3.47;87.53
52185;BME280;38160;52.876;18.778;2023-01-31T13:02:39;100296.33;;;3.47;87.86
52185;BME280;38160;52.876;18.778;2023-01-31T13:05:25;100292.02;;;3.49;87.46
52185;BME280;38160;52.876;18.778;2023-01-31T13:08:06;100289.02;;;3.51;87.66
52185;BME280;38160;52.876;18.778;2023-01-31T13:10:55;100289.66;;;3.45;87.22
52185;BME280;38160;52.876;18.778;2023-01-31T13:13:36;100286.66;;;3.37;87.07
52185;BME280;38160;52.876;18.778;2023-01-31T13:16:20;100284.48;;;3.33;87.31
52185;BME280;38160;52.876;18.778;2023-01-31T13:19:03;100285.92;;;3.30;87.47
52185;BME280;38160;52.876;18.778;2023-01-31T13:21:44;100281.79;;;3.31;87.89
52185;BME280;38160;52.876;18.778;2023-01-31T13:24:27;100278.08;;;3.31;87.73
52185;BME280;38160;52.876;18.778;2023-01-31T13:27:15;100276.73;;;3.32;87.73
52185;BME280;38160;52.876;18.778;2023-01-31T13:29:56;100273.42;;;3.29;87.59
52185;BME280;38160;52.876;18.778;2023-01-31T13:32:38;100272.95;;;3.26;87.82
52185;BME280;38160;52.876;18.778;2023-01-31T13:35:22;100270.44;;;3.24;88.13
52185;BME280;38160;52.876;18.778;2023-01-31T13:38:01;100270.10;;;3.22;88.06
52185;BME280;38160;52.876;18.778;2023-01-31T13:40:48;100268.30;;;3.20;88.16
52185;BME280;38160;52.876;18.778;2023-01-31T13:43:32;100260.38;;;3.17;88.21
52185;BME280;38160;52.876;18.778;2023-01-31T13:46:16;100257.49;;;3.13;88.47
52185;BME280;38160;52.876;18.778;2023-01-31T13:49:12;100257.27;;;3.11;88.57
52185;BME280;38160;52.876;18.778;2023-01-31T13:52:20;100252.54;;;3.10;88.41
52185;BME280;38160;52.876;18.778;2023-01-31T13:55:02;100254.33;;;3.13;88.74
52185;BME280;38160;52.876;18.778;2023-01-31T13:57:54;100249.02;;;3.15;88.52
52185;BME280;38160;52.876;18.778;2023-01-31T14:00:42;100245.42;;;3.15;88.47
52185;BME280;38160;52.876;18.778;2023-01-31T14:03:20;100244.19;;;3.15;88.54
52185;BME280;38160;52.876;18.778;2023-01-31T14:06:00;100247.31;;;3.14;88.58
52185;BME280;38160;52.876;18.778;2023-01-31T14:08:57;100243.88;;;3.12;88.60
52185;BME280;38160;52.876;18.778;2023-01-31T14:11:34;100237.38;;;3.11;88.50